Gerton, NC

08:41 AM EST on Jannar 22, 2018 (GMT -0500)
Rabbit Run Creekside | | Change Station

Elev 2835 ft 35.48 °N, 82.35 °W | Updated 13 minutes ago

ċar
ċar
42.7 °F
Feels Like 43 °F
N
3.0
rih varjabbli rih from Punent Majistru
Gusts 3.0 mph

Illum
High -- | Low -- °F
--% Chance of Precip.
Yesterday
High -- | Low -- °F
Precip. -- in
pressjoni 30.18 in
vizibilita 10.0 mili
s ċar
kesha tar-rih 43 °F
punt ta' nida 41 °F
umdita 93%
Rainfall 0.00 in
Snow Depth Not available.
7:35 AM 5:47 PM
Waxing Crescent, 26% visible
METAR KAVL 221254Z 00000KT 10SM CLR 01/00 A3017 RMK AO2 SLP218 T00110000
pressjoni 30.18 in
vizibilita 10.0 mili
s ċar
kesha tar-rih 43 °F
punt ta' nida 41 °F
umdita 93%
Rainfall 0.00 in
Snow Depth Not available.
7:35 AM 5:47 PM
Waxing Crescent, 26% visible
METAR KAVL 221254Z 00000KT 10SM CLR 01/00 A3017 RMK AO2 SLP218 T00110000

Get Severe Weather Alerts

Thanks for signing up!

Be on the lookout for a verification email in your inbox.

You'll start receiving the daily forecast at 6 AM.

×

10-Day Weather Forecast

Almanac

Astronomy

Jan. 22, 2018 Rise Set
Actual Time
Civil Twilight
Nautical Twilight
Astronomical Twilight
Moon
Length Of Visible Light
Length of Day
Tomorrow will be .
, % of the Moon is Illuminated

Today's Extremes

State Highs State Lows

Community

WunderPhotos

Category 6

Welcome to Category 6. This is the collective home for Weather Underground's featured writeups by Dr. Jeff Masters (right), Bob Henson (left), Chris Burt, and other regular contributors.

Nearby

Air Quality

  Air Quality AQ Index Pollutant
Not available.

Snow Depth

Station Depth Elevation

Earthquake Activity

City Distance Mag. Time & Date
Minimum magnitude displayed is 2.5.

Coastal Water Temperatures

Post temperatura

Stations

Nearby Weather Stations

Station Location Temp kesha tar-rih punt ta' nida umdita rih Precip. Elev aggornat Type
                   

Watches & Warnings

There are currently no watches in effect.